sensor_id;sensor_type;location;lat;lon;timestamp;P1;durP1;ratioP1;P2;durP2;ratioP2
2406;SDS011;37709;53.480;9.688;2024-03-22T00:02:10;13.63;;;11.27;;
2406;SDS011;37709;53.480;9.688;2024-03-22T00:04:36;12.33;;;10.20;;
2406;SDS011;37709;53.480;9.688;2024-03-22T00:07:03;11.50;;;10.33;;
2406;SDS011;37709;53.480;9.688;2024-03-22T00:09:30;14.90;;;10.50;;
2406;SDS011;37709;53.480;9.688;2024-03-22T00:11:56;13.70;;;11.20;;
2406;SDS011;37709;53.480;9.688;2024-03-22T00:14:24;11.87;;;10.53;;
2406;SDS011;37709;53.480;9.688;2024-03-22T00:16:50;13.70;;;11.27;;
2406;SDS011;37709;53.480;9.688;2024-03-22T00:19:17;17.00;;;11.63;;
2406;SDS011;37709;53.480;9.688;2024-03-22T00:21:44;15.30;;;11.30;;
2406;SDS011;37709;53.480;9.688;2024-03-22T00:24:11;15.30;;;12.40;;
2406;SDS011;37709;53.480;9.688;2024-03-22T00:26:37;14.83;;;12.53;;
2406;SDS011;37709;53.480;9.688;2024-03-22T00:29:04;19.93;;;12.00;;
2406;SDS011;37709;53.480;9.688;2024-03-22T00:31:30;15.90;;;12.73;;
2406;SDS011;37709;53.480;9.688;2024-03-22T00:33:57;17.10;;;11.40;;
2406;SDS011;37709;53.480;9.688;2024-03-22T00:36:23;15.20;;;11.30;;
2406;SDS011;37709;53.480;9.688;2024-03-22T00:38:49;12.73;;;11.30;;
2406;SDS011;37709;53.480;9.688;2024-03-22T00:41:16;16.93;;;12.20;;
2406;SDS011;37709;53.480;9.688;2024-03-22T00:43:43;13.17;;;10.43;;
2406;SDS011;37709;53.480;9.688;2024-03-22T00:46:10;11.90;;;10.73;;
2406;SDS011;37709;53.480;9.688;2024-03-22T00:48:36;15.60;;;11.43;;
2406;SDS011;37709;53.480;9.688;2024-03-22T00:51:02;13.20;;;11.50;;
2406;SDS011;37709;53.480;9.688;2024-03-22T00:53:29;14.27;;;10.60;;
2406;SDS011;37709;53.480;9.688;2024-03-22T00:55:56;14.10;;;11.50;;
2406;SDS011;37709;53.480;9.688;2024-03-22T00:58:28;10.80;;;9.70;;
2406;SDS011;37709;53.480;9.688;2024-03-22T01:00:55;13.60;;;10.77;;
2406;SDS011;37709;53.480;9.688;2024-03-22T01:03:21;17.10;;;11.40;;
2406;SDS011;37709;53.480;9.688;2024-03-22T01:05:48;13.20;;;10.60;;
2406;SDS011;37709;53.480;9.688;2024-03-22T01:08:14;14.80;;;12.87;;
2406;SDS011;37709;53.480;9.688;2024-03-22T01:10:41;15.17;;;12.63;;
2406;SDS011;37709;53.480;9.688;2024-03-22T01:13:07;13.70;;;11.03;;
2406;SDS011;37709;53.480;9.688;2024-03-22T01:15:34;12.50;;;11.17;;
2406;SDS011;37709;53.480;9.688;2024-03-22T01:18:01;15.23;;;12.77;;
2406;SDS011;37709;53.480;9.688;2024-03-22T01:20:29;14.53;;;12.37;;
2406;SDS011;37709;53.480;9.688;2024-03-22T01:22:55;15.87;;;13.00;;
2406;SDS011;37709;53.480;9.688;2024-03-22T01:25:22;15.10;;;12.67;;
2406;SDS011;37709;53.480;9.688;2024-03-22T01:27:48;17.73;;;13.87;;
2406;SDS011;37709;53.480;9.688;2024-03-22T01:30:14;14.43;;;11.20;;
2406;SDS011;37709;53.480;9.688;2024-03-22T01:32:42;15.30;;;13.47;;
2406;SDS011;37709;53.480;9.688;2024-03-22T01:35:09;15.10;;;13.50;;
2406;SDS011;37709;53.480;9.688;2024-03-22T01:37:36;19.53;;;12.90;;
2406;SDS011;37709;53.480;9.688;2024-03-22T01:40:03;17.30;;;13.97;;
2406;SDS011;37709;53.480;9.688;2024-03-22T01:42:31;15.40;;;13.67;;
2406;SDS011;37709;53.480;9.688;2024-03-22T01:44:58;18.50;;;13.80;;
2406;SDS011;37709;53.480;9.688;2024-03-22T01:47:24;19.07;;;14.47;;
2406;SDS011;37709;53.480;9.688;2024-03-22T01:49:51;16.90;;;13.10;;
2406;SDS011;37709;53.480;9.688;2024-03-22T01:52:20;16.87;;;14.10;;
2406;SDS011;37709;53.480;9.688;2024-03-22T01:54:48;18.30;;;14.40;;
2406;SDS011;37709;53.480;9.688;2024-03-22T01:57:16;15.63;;;13.83;;
2406;SDS011;37709;53.480;9.688;2024-03-22T01:59:42;20.10;;;15.17;;
2406;SDS011;37709;53.480;9.688;2024-03-22T02:02:09;18.20;;;16.00;;
2406;SDS011;37709;53.480;9.688;2024-03-22T02:04:37;19.43;;;15.60;;
2406;SDS011;37709;53.480;9.688;2024-03-22T02:07:03;20.10;;;16.20;;
2406;SDS011;37709;53.480;9.688;2024-03-22T02:09:30;21.37;;;17.33;;
2406;SDS011;37709;53.480;9.688;2024-03-22T02:11:56;19.20;;;15.60;;
2406;SDS011;37709;53.480;9.688;2024-03-22T02:14:22;20.63;;;16.63;;
2406;SDS011;37709;53.480;9.688;2024-03-22T02:16:49;23.10;;;16.17;;
2406;SDS011;37709;53.480;9.688;2024-03-22T02:19:15;22.87;;;17.23;;
2406;SDS011;37709;53.480;9.688;2024-03-22T02:21:43;19.50;;;17.40;;
2406;SDS011;37709;53.480;9.688;2024-03-22T02:24:09;19.10;;;17.20;;
2406;SDS011;37709;53.480;9.688;2024-03-22T02:26:36;20.70;;;17.63;;
2406;SDS011;37709;53.480;9.688;2024-03-22T02:29:03;20.10;;;17.37;;
2406;SDS011;37709;53.480;9.688;2024-03-22T02:31:30;21.43;;;17.67;;
2406;SDS011;37709;53.480;9.688;2024-03-22T02:33:59;19.70;;;17.67;;
2406;SDS011;37709;53.480;9.688;2024-03-22T02:36:26;21.00;;;17.87;;
2406;SDS011;37709;53.480;9.688;2024-03-22T02:38:52;22.23;;;16.07;;
2406;SDS011;37709;53.480;9.688;2024-03-22T02:41:19;24.30;;;19.67;;
2406;SDS011;37709;53.480;9.688;2024-03-22T02:43:46;23.47;;;19.73;;
2406;SDS011;37709;53.480;9.688;2024-03-22T02:46:14;22.90;;;19.10;;
2406;SDS011;37709;53.480;9.688;2024-03-22T02:48:40;25.07;;;19.40;;
2406;SDS011;37709;53.480;9.688;2024-03-22T02:51:06;21.47;;;18.17;;
2406;SDS011;37709;53.480;9.688;2024-03-22T02:53:33;24.73;;;19.93;;
2406;SDS011;37709;53.480;9.688;2024-03-22T02:56:00;21.70;;;19.40;;
2406;SDS011;37709;53.480;9.688;2024-03-22T02:58:26;22.80;;;19.07;;
2406;SDS011;37709;53.480;9.688;2024-03-22T03:00:54;26.70;;;20.23;;
2406;SDS011;37709;53.480;9.688;2024-03-22T03:03:21;24.47;;;20.73;;
2406;SDS011;37709;53.480;9.688;2024-03-22T03:05:47;23.23;;;19.50;;
2406;SDS011;37709;53.480;9.688;2024-03-22T03:08:14;26.70;;;21.27;;
2406;SDS011;37709;53.480;9.688;2024-03-22T03:10:41;25.90;;;21.50;;
2406;SDS011;37709;53.480;9.688;2024-03-22T03:13:07;25.40;;;22.53;;
2406;SDS011;37709;53.480;9.688;2024-03-22T03:15:34;28.77;;;23.50;;
2406;SDS011;37709;53.480;9.688;2024-03-22T03:18:00;27.93;;;22.17;;
2406;SDS011;37709;53.480;9.688;2024-03-22T03:20:27;29.90;;;22.00;;
2406;SDS011;37709;53.480;9.688;2024-03-22T03:22:53;28.20;;;24.97;;
2406;SDS011;37709;53.480;9.688;2024-03-22T03:25:19;27.27;;;23.50;;
2406;SDS011;37709;53.480;9.688;2024-03-22T03:27:46;27.57;;;21.27;;
2406;SDS011;37709;53.480;9.688;2024-03-22T03:30:12;31.10;;;24.83;;
2406;SDS011;37709;53.480;9.688;2024-03-22T03:32:39;33.00;;;24.67;;
2406;SDS011;37709;53.480;9.688;2024-03-22T03:35:05;30.00;;;24.83;;
2406;SDS011;37709;53.480;9.688;2024-03-22T03:37:32;28.23;;;24.93;;
2406;SDS011;37709;53.480;9.688;2024-03-22T03:39:58;33.83;;;24.57;;
2406;SDS011;37709;53.480;9.688;2024-03-22T03:42:25;30.67;;;25.40;;
2406;SDS011;37709;53.480;9.688;2024-03-22T03:44:51;29.23;;;23.93;;
2406;SDS011;37709;53.480;9.688;2024-03-22T03:47:18;28.93;;;24.27;;
2406;SDS011;37709;53.480;9.688;2024-03-22T03:49:45;31.80;;;24.87;;
2406;SDS011;37709;53.480;9.688;2024-03-22T03:52:12;31.40;;;25.30;;
2406;SDS011;37709;53.480;9.688;2024-03-22T03:54:38;31.10;;;25.60;;
2406;SDS011;37709;53.480;9.688;2024-03-22T03:57:05;32.23;;;24.87;;
2406;SDS011;37709;53.480;9.688;2024-03-22T03:59:31;33.30;;;26.17;;
2406;SDS011;37709;53.480;9.688;2024-03-22T04:01:57;30.00;;;24.60;;
2406;SDS011;37709;53.480;9.688;2024-03-22T04:04:25;33.10;;;24.77;;
2406;SDS011;37709;53.480;9.688;2024-03-22T04:06:51;31.97;;;25.47;;
2406;SDS011;37709;53.480;9.688;2024-03-22T04:09:17;31.57;;;26.63;;
2406;SDS011;37709;53.480;9.688;2024-03-22T04:11:46;33.80;;;26.23;;
2406;SDS011;37709;53.480;9.688;2024-03-22T04:14:14;31.00;;;25.17;;
2406;SDS011;37709;53.480;9.688;2024-03-22T04:16:41;31.17;;;26.90;;
2406;SDS011;37709;53.480;9.688;2024-03-22T04:19:07;29.70;;;25.10;;
2406;SDS011;37709;53.480;9.688;2024-03-22T04:21:33;31.53;;;28.13;;
2406;SDS011;37709;53.480;9.688;2024-03-22T04:24:00;34.03;;;27.97;;
2406;SDS011;37709;53.480;9.688;2024-03-22T04:26:26;32.33;;;26.90;;
2406;SDS011;37709;53.480;9.688;2024-03-22T04:28:52;31.33;;;26.03;;
2406;SDS011;37709;53.480;9.688;2024-03-22T04:31:19;28.97;;;21.90;;
2406;SDS011;37709;53.480;9.688;2024-03-22T04:33:45;32.00;;;24.83;;
2406;SDS011;37709;53.480;9.688;2024-03-22T04:36:12;36.40;;;27.93;;
2406;SDS011;37709;53.480;9.688;2024-03-22T04:38:40;31.63;;;26.37;;
2406;SDS011;37709;53.480;9.688;2024-03-22T04:41:07;31.90;;;25.07;;
2406;SDS011;37709;53.480;9.688;2024-03-22T04:43:34;35.67;;;27.57;;
2406;SDS011;37709;53.480;9.688;2024-03-22T04:46:00;34.87;;;28.30;;
2406;SDS011;37709;53.480;9.688;2024-03-22T04:48:26;32.20;;;24.50;;
2406;SDS011;37709;53.480;9.688;2024-03-22T04:50:53;35.10;;;26.97;;
2406;SDS011;37709;53.480;9.688;2024-03-22T04:53:20;32.00;;;27.03;;
2406;SDS011;37709;53.480;9.688;2024-03-22T04:55:47;34.70;;;26.87;;
2406;SDS011;37709;53.480;9.688;2024-03-22T04:58:14;34.67;;;28.27;;
2406;SDS011;37709;53.480;9.688;2024-03-22T05:00:42;34.00;;;26.37;;
2406;SDS011;37709;53.480;9.688;2024-03-22T05:03:09;37.40;;;28.87;;
2406;SDS011;37709;53.480;9.688;2024-03-22T05:05:36;32.73;;;26.60;;
2406;SDS011;37709;53.480;9.688;2024-03-22T05:08:03;37.83;;;28.37;;
2406;SDS011;37709;53.480;9.688;2024-03-22T05:10:30;39.17;;;28.43;;
2406;SDS011;37709;53.480;9.688;2024-03-22T05:12:57;37.83;;;28.90;;
2406;SDS011;37709;53.480;9.688;2024-03-22T05:15:24;35.37;;;26.80;;
2406;SDS011;37709;53.480;9.688;2024-03-22T05:17:54;34.93;;;28.80;;
2406;SDS011;37709;53.480;9.688;2024-03-22T05:20:21;34.33;;;26.70;;
2406;SDS011;37709;53.480;9.688;2024-03-22T05:22:48;38.43;;;28.73;;
2406;SDS011;37709;53.480;9.688;2024-03-22T05:25:15;34.87;;;27.90;;
2406;SDS011;37709;53.480;9.688;2024-03-22T05:27:42;36.27;;;28.43;;
2406;SDS011;37709;53.480;9.688;2024-03-22T05:30:09;34.40;;;27.00;;
2406;SDS011;37709;53.480;9.688;2024-03-22T05:32:36;36.97;;;28.10;;
2406;SDS011;37709;53.480;9.688;2024-03-22T05:35:02;32.47;;;26.00;;
2406;SDS011;37709;53.480;9.688;2024-03-22T05:37:30;38.33;;;28.97;;
2406;SDS011;37709;53.480;9.688;2024-03-22T05:39:56;34.63;;;28.53;;
2406;SDS011;37709;53.480;9.688;2024-03-22T05:42:23;34.97;;;27.97;;
2406;SDS011;37709;53.480;9.688;2024-03-22T05:44:51;33.43;;;26.90;;
2406;SDS011;37709;53.480;9.688;2024-03-22T05:47:19;38.60;;;29.30;;
2406;SDS011;37709;53.480;9.688;2024-03-22T05:49:47;35.10;;;28.67;;
2406;SDS011;37709;53.480;9.688;2024-03-22T05:52:14;33.73;;;27.93;;
2406;SDS011;37709;53.480;9.688;2024-03-22T05:54:40;39.63;;;29.80;;
2406;SDS011;37709;53.480;9.688;2024-03-22T05:57:06;37.87;;;30.30;;
2406;SDS011;37709;53.480;9.688;2024-03-22T05:59:33;35.87;;;28.80;;
2406;SDS011;37709;53.480;9.688;2024-03-22T06:02:00;37.20;;;29.30;;
2406;SDS011;37709;53.480;9.688;2024-03-22T06:04:26;37.90;;;29.43;;
2406;SDS011;37709;53.480;9.688;2024-03-22T06:06:53;39.70;;;30.77;;
2406;SDS011;37709;53.480;9.688;2024-03-22T06:09:22;38.00;;;29.70;;
2406;SDS011;37709;53.480;9.688;2024-03-22T06:12:01;38.27;;;29.93;;
2406;SDS011;37709;53.480;9.688;2024-03-22T06:14:29;36.03;;;29.13;;
2406;SDS011;37709;53.480;9.688;2024-03-22T06:16:55;38.97;;;29.23;;
2406;SDS011;37709;53.480;9.688;2024-03-22T06:19:22;42.70;;;29.50;;
2406;SDS011;37709;53.480;9.688;2024-03-22T06:21:49;40.50;;;28.03;;
2406;SDS011;37709;53.480;9.688;2024-03-22T06:24:15;38.33;;;28.07;;
2406;SDS011;37709;53.480;9.688;2024-03-22T06:26:41;39.00;;;29.77;;
2406;SDS011;37709;53.480;9.688;2024-03-22T06:29:09;37.07;;;28.93;;
2406;SDS011;37709;53.480;9.688;2024-03-22T06:31:35;39.20;;;30.07;;
2406;SDS011;37709;53.480;9.688;2024-03-22T06:34:02;36.97;;;29.57;;
2406;SDS011;37709;53.480;9.688;2024-03-22T06:36:28;36.43;;;28.30;;
2406;SDS011;37709;53.480;9.688;2024-03-22T06:38:59;38.67;;;29.07;;
2406;SDS011;37709;53.480;9.688;2024-03-22T06:41:25;36.90;;;29.83;;
2406;SDS011;37709;53.480;9.688;2024-03-22T06:43:53;39.33;;;28.97;;
2406;SDS011;37709;53.480;9.688;2024-03-22T06:46:20;40.10;;;29.53;;
2406;SDS011;37709;53.480;9.688;2024-03-22T06:48:46;39.17;;;29.50;;
2406;SDS011;37709;53.480;9.688;2024-03-22T06:51:12;42.47;;;29.77;;
2406;SDS011;37709;53.480;9.688;2024-03-22T06:53:38;38.93;;;30.23;;
2406;SDS011;37709;53.480;9.688;2024-03-22T06:56:05;41.30;;;31.47;;
2406;SDS011;37709;53.480;9.688;2024-03-22T06:58:40;38.13;;;30.37;;
2406;SDS011;37709;53.480;9.688;2024-03-22T07:01:07;39.93;;;30.27;;
2406;SDS011;37709;53.480;9.688;2024-03-22T07:03:33;43.23;;;31.67;;
2406;SDS011;37709;53.480;9.688;2024-03-22T07:05:59;39.93;;;28.00;;
2406;SDS011;37709;53.480;9.688;2024-03-22T07:08:30;33.63;;;28.07;;
2406;SDS011;37709;53.480;9.688;2024-03-22T07:10:56;35.10;;;28.60;;
2406;SDS011;37709;53.480;9.688;2024-03-22T07:13:24;39.57;;;28.20;;
2406;SDS011;37709;53.480;9.688;2024-03-22T07:15:51;37.03;;;28.40;;
2406;SDS011;37709;53.480;9.688;2024-03-22T07:18:19;36.50;;;29.80;;
2406;SDS011;37709;53.480;9.688;2024-03-22T07:20:45;37.87;;;30.20;;
2406;SDS011;37709;53.480;9.688;2024-03-22T07:23:13;36.93;;;30.20;;
2406;SDS011;37709;53.480;9.688;2024-03-22T07:25:39;39.97;;;29.93;;
2406;SDS011;37709;53.480;9.688;2024-03-22T07:28:08;37.93;;;29.33;;
2406;SDS011;37709;53.480;9.688;2024-03-22T07:30:35;38.43;;;30.03;;
2406;SDS011;37709;53.480;9.688;2024-03-22T07:33:03;38.80;;;31.20;;
2406;SDS011;37709;53.480;9.688;2024-03-22T07:35:31;42.40;;;31.87;;
2406;SDS011;37709;53.480;9.688;2024-03-22T07:38:00;39.00;;;31.40;;
2406;SDS011;37709;53.480;9.688;2024-03-22T07:40:27;40.13;;;31.00;;
2406;SDS011;37709;53.480;9.688;2024-03-22T07:42:53;43.27;;;32.63;;
2406;SDS011;37709;53.480;9.688;2024-03-22T07:45:19;40.37;;;33.17;;
2406;SDS011;37709;53.480;9.688;2024-03-22T07:47:45;40.47;;;30.90;;
2406;SDS011;37709;53.480;9.688;2024-03-22T07:50:12;38.77;;;29.70;;
2406;SDS011;37709;53.480;9.688;2024-03-22T07:52:39;43.10;;;32.90;;
2406;SDS011;37709;53.480;9.688;2024-03-22T07:55:06;37.67;;;31.60;;
2406;SDS011;37709;53.480;9.688;2024-03-22T07:57:33;43.07;;;34.27;;
2406;SDS011;37709;53.480;9.688;2024-03-22T08:00:00;38.80;;;30.77;;
2406;SDS011;37709;53.480;9.688;2024-03-22T08:02:27;47.43;;;33.30;;
2406;SDS011;37709;53.480;9.688;2024-03-22T08:04:53;46.90;;;35.30;;
2406;SDS011;37709;53.480;9.688;2024-03-22T08:07:19;52.77;;;36.20;;
2406;SDS011;37709;53.480;9.688;2024-03-22T08:09:47;61.40;;;39.73;;
2406;SDS011;37709;53.480;9.688;2024-03-22T08:12:13;68.50;;;38.93;;
2406;SDS011;37709;53.480;9.688;2024-03-22T08:14:39;54.37;;;36.93;;
2406;SDS011;37709;53.480;9.688;2024-03-22T08:17:07;55.00;;;37.17;;
2406;SDS011;37709;53.480;9.688;2024-03-22T08:19:35;63.23;;;37.87;;
2406;SDS011;37709;53.480;9.688;2024-03-22T08:22:01;68.23;;;41.27;;
2406;SDS011;37709;53.480;9.688;2024-03-22T08:24:29;80.87;;;43.30;;
2406;SDS011;37709;53.480;9.688;2024-03-22T08:26:57;53.70;;;40.10;;
2406;SDS011;37709;53.480;9.688;2024-03-22T08:29:23;70.57;;;41.30;;
2406;SDS011;37709;53.480;9.688;2024-03-22T08:31:49;67.03;;;41.30;;
2406;SDS011;37709;53.480;9.688;2024-03-22T08:34:16;69.43;;;43.47;;
2406;SDS011;37709;53.480;9.688;2024-03-22T08:36:43;78.57;;;41.43;;
2406;SDS011;37709;53.480;9.688;2024-03-22T08:39:09;79.73;;;44.93;;
2406;SDS011;37709;53.480;9.688;2024-03-22T08:41:37;90.97;;;44.67;;
2406;SDS011;37709;53.480;9.688;2024-03-22T08:44:04;74.37;;;42.67;;
2406;SDS011;37709;53.480;9.688;2024-03-22T08:46:30;79.90;;;44.43;;
2406;SDS011;37709;53.480;9.688;2024-03-22T08:48:58;76.00;;;44.93;;
2406;SDS011;37709;53.480;9.688;2024-03-22T08:51:24;71.10;;;43.40;;
2406;SDS011;37709;53.480;9.688;2024-03-22T08:53:51;77.30;;;41.70;;
2406;SDS011;37709;53.480;9.688;2024-03-22T08:56:18;67.27;;;39.83;;
2406;SDS011;37709;53.480;9.688;2024-03-22T08:58:44;57.87;;;41.33;;
2406;SDS011;37709;53.480;9.688;2024-03-22T09:01:11;58.07;;;37.10;;
2406;SDS011;37709;53.480;9.688;2024-03-22T09:03:38;56.90;;;35.27;;
2406;SDS011;37709;53.480;9.688;2024-03-22T09:06:08;53.60;;;39.40;;
2406;SDS011;37709;53.480;9.688;2024-03-22T09:08:35;58.37;;;38.00;;
2406;SDS011;37709;53.480;9.688;2024-03-22T09:13:53;44.80;;;28.50;;
2406;SDS011;37709;53.480;9.688;2024-03-22T09:16:21;61.53;;;37.10;;
2406;SDS011;37709;53.480;9.688;2024-03-22T09:18:49;56.60;;;35.97;;
2406;SDS011;37709;53.480;9.688;2024-03-22T09:21:17;54.90;;;35.37;;
2406;SDS011;37709;53.480;9.688;2024-03-22T09:23:44;65.53;;;37.83;;
2406;SDS011;37709;53.480;9.688;2024-03-22T09:26:10;58.10;;;33.50;;
2406;SDS011;37709;53.480;9.688;2024-03-22T09:28:37;67.67;;;39.57;;
2406;SDS011;37709;53.480;9.688;2024-03-22T09:31:05;57.83;;;36.87;;
2406;SDS011;37709;53.480;9.688;2024-03-22T09:33:33;77.80;;;40.67;;
2406;SDS011;37709;53.480;9.688;2024-03-22T09:35:59;68.90;;;39.53;;
2406;SDS011;37709;53.480;9.688;2024-03-22T09:38:26;53.07;;;32.37;;
2406;SDS011;37709;53.480;9.688;2024-03-22T09:40:54;44.93;;;26.97;;
2406;SDS011;37709;53.480;9.688;2024-03-22T09:43:21;54.77;;;32.23;;
2406;SDS011;37709;53.480;9.688;2024-03-22T09:45:53;53.57;;;33.60;;
2406;SDS011;37709;53.480;9.688;2024-03-22T09:48:21;54.33;;;37.50;;
2406;SDS011;37709;53.480;9.688;2024-03-22T09:50:49;61.30;;;33.60;;
2406;SDS011;37709;53.480;9.688;2024-03-22T09:53:19;52.87;;;31.70;;
2406;SDS011;37709;53.480;9.688;2024-03-22T09:55:51;63.20;;;31.07;;
2406;SDS011;37709;53.480;9.688;2024-03-22T09:58:23;54.97;;;30.73;;
2406;SDS011;37709;53.480;9.688;2024-03-22T10:00:51;49.23;;;29.93;;
2406;SDS011;37709;53.480;9.688;2024-03-22T10:03:20;45.10;;;30.60;;
2406;SDS011;37709;53.480;9.688;2024-03-22T10:05:48;46.37;;;31.67;;
2406;SDS011;37709;53.480;9.688;2024-03-22T10:08:14;52.83;;;31.00;;
2406;SDS011;37709;53.480;9.688;2024-03-22T10:10:41;55.17;;;31.37;;
2406;SDS011;37709;53.480;9.688;2024-03-22T10:13:08;44.63;;;29.00;;
2406;SDS011;37709;53.480;9.688;2024-03-22T10:15:40;47.00;;;27.37;;
2406;SDS011;37709;53.480;9.688;2024-03-22T10:18:07;42.00;;;26.97;;
2406;SDS011;37709;53.480;9.688;2024-03-22T10:20:36;54.20;;;30.67;;
2406;SDS011;37709;53.480;9.688;2024-03-22T10:23:03;58.20;;;31.63;;
2406;SDS011;37709;53.480;9.688;2024-03-22T10:25:29;61.97;;;29.67;;
2406;SDS011;37709;53.480;9.688;2024-03-22T10:27:56;47.03;;;25.27;;
2406;SDS011;37709;53.480;9.688;2024-03-22T10:30:23;51.43;;;27.97;;
2406;SDS011;37709;53.480;9.688;2024-03-22T10:32:51;51.77;;;27.77;;
2406;SDS011;37709;53.480;9.688;2024-03-22T10:35:18;46.50;;;25.43;;
2406;SDS011;37709;53.480;9.688;2024-03-22T10:37:44;47.40;;;26.20;;
2406;SDS011;37709;53.480;9.688;2024-03-22T10:40:11;49.73;;;27.07;;
2406;SDS011;37709;53.480;9.688;2024-03-22T10:42:39;43.80;;;26.07;;
2406;SDS011;37709;53.480;9.688;2024-03-22T10:45:06;39.53;;;24.97;;
2406;SDS011;37709;53.480;9.688;2024-03-22T10:47:35;56.20;;;27.40;;
2406;SDS011;37709;53.480;9.688;2024-03-22T10:50:09;56.77;;;26.83;;
2406;SDS011;37709;53.480;9.688;2024-03-22T10:52:47;51.33;;;25.30;;
2406;SDS011;37709;53.480;9.688;2024-03-22T10:57:55;33.80;;;22.83;;
2406;SDS011;37709;53.480;9.688;2024-03-22T11:00:29;33.20;;;20.40;;
2406;SDS011;37709;53.480;9.688;2024-03-22T11:02:56;29.53;;;16.20;;
2406;SDS011;37709;53.480;9.688;2024-03-22T11:05:23;36.10;;;21.73;;
2406;SDS011;37709;53.480;9.688;2024-03-22T11:08:05;35.60;;;19.70;;
2406;SDS011;37709;53.480;9.688;2024-03-22T11:10:33;48.40;;;21.07;;
2406;SDS011;37709;53.480;9.688;2024-03-22T11:13:01;44.43;;;22.40;;
2406;SDS011;37709;53.480;9.688;2024-03-22T11:15:30;38.60;;;22.40;;
2406;SDS011;37709;53.480;9.688;2024-03-22T11:18:00;32.57;;;20.77;;
2406;SDS011;37709;53.480;9.688;2024-03-22T11:20:27;30.63;;;21.07;;
2406;SDS011;37709;53.480;9.688;2024-03-22T11:22:56;38.40;;;20.73;;
2406;SDS011;37709;53.480;9.688;2024-03-22T11:25:24;41.83;;;21.87;;
2406;SDS011;37709;53.480;9.688;2024-03-22T11:27:50;38.07;;;21.60;;
2406;SDS011;37709;53.480;9.688;2024-03-22T11:30:17;34.63;;;20.40;;
2406;SDS011;37709;53.480;9.688;2024-03-22T11:32:44;23.93;;;16.47;;
2406;SDS011;37709;53.480;9.688;2024-03-22T11:35:12;35.60;;;20.00;;
2406;SDS011;37709;53.480;9.688;2024-03-22T11:37:41;25.90;;;17.60;;
2406;SDS011;37709;53.480;9.688;2024-03-22T11:40:14;31.53;;;19.03;;
2406;SDS011;37709;53.480;9.688;2024-03-22T11:42:41;36.33;;;19.87;;
2406;SDS011;37709;53.480;9.688;2024-03-22T11:45:13;33.20;;;19.90;;
2406;SDS011;37709;53.480;9.688;2024-03-22T11:47:43;32.60;;;18.87;;
2406;SDS011;37709;53.480;9.688;2024-03-22T11:50:11;27.87;;;17.33;;
2406;SDS011;37709;53.480;9.688;2024-03-22T11:52:42;22.60;;;16.77;;
2406;SDS011;37709;53.480;9.688;2024-03-22T11:55:10;13.60;;;9.60;;
2406;SDS011;37709;53.480;9.688;2024-03-22T11:57:37;12.80;;;10.73;;
2406;SDS011;37709;53.480;9.688;2024-03-22T12:00:03;16.43;;;12.23;;
2406;SDS011;37709;53.480;9.688;2024-03-22T12:02:40;15.83;;;12.13;;
2406;SDS011;37709;53.480;9.688;2024-03-22T12:05:12;17.53;;;13.37;;
2406;SDS011;37709;53.480;9.688;2024-03-22T12:07:39;14.67;;;12.60;;
2406;SDS011;37709;53.480;9.688;2024-03-22T12:12:58;15.30;;;11.37;;
2406;SDS011;37709;53.480;9.688;2024-03-22T12:15:25;14.70;;;10.80;;
2406;SDS011;37709;53.480;9.688;2024-03-22T12:17:51;13.03;;;10.97;;
2406;SDS011;37709;53.480;9.688;2024-03-22T12:20:19;12.80;;;11.27;;
2406;SDS011;37709;53.480;9.688;2024-03-22T12:22:46;12.03;;;10.83;;
2406;SDS011;37709;53.480;9.688;2024-03-22T12:25:12;11.90;;;9.80;;
2406;SDS011;37709;53.480;9.688;2024-03-22T12:27:39;13.50;;;10.30;;
2406;SDS011;37709;53.480;9.688;2024-03-22T12:30:05;11.07;;;9.87;;
2406;SDS011;37709;53.480;9.688;2024-03-22T12:32:32;13.50;;;10.23;;
2406;SDS011;37709;53.480;9.688;2024-03-22T12:34:59;14.50;;;10.33;;
2406;SDS011;37709;53.480;9.688;2024-03-22T12:37:26;15.77;;;10.53;;
2406;SDS011;37709;53.480;9.688;2024-03-22T12:39:52;17.57;;;12.40;;
2406;SDS011;37709;53.480;9.688;2024-03-22T12:42:19;17.20;;;10.73;;
2406;SDS011;37709;53.480;9.688;2024-03-22T12:47:38;12.80;;;10.53;;
2406;SDS011;37709;53.480;9.688;2024-03-22T12:50:08;20.03;;;12.17;;
2406;SDS011;37709;53.480;9.688;2024-03-22T12:52:34;19.87;;;12.10;;
2406;SDS011;37709;53.480;9.688;2024-03-22T12:55:01;21.80;;;12.17;;
2406;SDS011;37709;53.480;9.688;2024-03-22T12:57:30;19.63;;;11.50;;
2406;SDS011;37709;53.480;9.688;2024-03-22T12:59:56;13.90;;;9.87;;
2406;SDS011;37709;53.480;9.688;2024-03-22T13:02:24;17.20;;;9.80;;
2406;SDS011;37709;53.480;9.688;2024-03-22T13:04:53;11.10;;;8.60;;
2406;SDS011;37709;53.480;9.688;2024-03-22T13:07:22;12.17;;;8.23;;
2406;SDS011;37709;53.480;9.688;2024-03-22T13:09:53;11.60;;;8.17;;
2406;SDS011;37709;53.480;9.688;2024-03-22T13:12:20;10.17;;;6.13;;
2406;SDS011;37709;53.480;9.688;2024-03-22T13:14:47;8.90;;;6.67;;
2406;SDS011;37709;53.480;9.688;2024-03-22T13:17:14;8.63;;;6.60;;
2406;SDS011;37709;53.480;9.688;2024-03-22T13:19:45;7.00;;;5.50;;
2406;SDS011;37709;53.480;9.688;2024-03-22T13:22:13;6.30;;;5.03;;
2406;SDS011;37709;53.480;9.688;2024-03-22T13:24:47;8.27;;;4.83;;
2406;SDS011;37709;53.480;9.688;2024-03-22T13:27:18;5.43;;;4.90;;
2406;SDS011;37709;53.480;9.688;2024-03-22T13:29:49;5.50;;;4.57;;
2406;SDS011;37709;53.480;9.688;2024-03-22T13:32:17;4.73;;;4.27;;
2406;SDS011;37709;53.480;9.688;2024-03-22T13:34:46;6.37;;;4.33;;
2406;SDS011;37709;53.480;9.688;2024-03-22T13:37:13;6.43;;;4.97;;
2406;SDS011;37709;53.480;9.688;2024-03-22T13:39:40;4.20;;;3.80;;
2406;SDS011;37709;53.480;9.688;2024-03-22T13:42:06;3.87;;;3.17;;
2406;SDS011;37709;53.480;9.688;2024-03-22T13:44:34;5.93;;;3.50;;
2406;SDS011;37709;53.480;9.688;2024-03-22T13:47:01;4.10;;;3.70;;
2406;SDS011;37709;53.480;9.688;2024-03-22T13:49:27;3.63;;;3.33;;
2406;SDS011;37709;53.480;9.688;2024-03-22T13:51:55;3.50;;;3.20;;
2406;SDS011;37709;53.480;9.688;2024-03-22T13:54:25;3.40;;;3.10;;
2406;SDS011;37709;53.480;9.688;2024-03-22T13:56:51;3.93;;;3.43;;
2406;SDS011;37709;53.480;9.688;2024-03-22T13:59:18;3.60;;;3.30;;
2406;SDS011;37709;53.480;9.688;2024-03-22T14:01:46;3.53;;;3.23;;
2406;SDS011;37709;53.480;9.688;2024-03-22T14:04:13;2.83;;;2.63;;
2406;SDS011;37709;53.480;9.688;2024-03-22T14:06:43;3.83;;;3.23;;
2406;SDS011;37709;53.480;9.688;2024-03-22T14:09:09;2.57;;;2.37;;
2406;SDS011;37709;53.480;9.688;2024-03-22T14:11:36;2.60;;;2.40;;
2406;SDS011;37709;53.480;9.688;2024-03-22T14:14:02;7.10;;;5.47;;
2406;SDS011;37709;53.480;9.688;2024-03-22T14:16:29;4.90;;;3.10;;
2406;SDS011;37709;53.480;9.688;2024-03-22T14:18:58;8.40;;;2.43;;
2406;SDS011;37709;53.480;9.688;2024-03-22T14:21:28;4.60;;;2.83;;
2406;SDS011;37709;53.480;9.688;2024-03-22T14:23:56;7.50;;;2.27;;
2406;SDS011;37709;53.480;9.688;2024-03-22T14:26:23;6.70;;;2.50;;
2406;SDS011;37709;53.480;9.688;2024-03-22T14:28:50;5.23;;;2.43;;
2406;SDS011;37709;53.480;9.688;2024-03-22T14:31:20;7.30;;;3.20;;
2406;SDS011;37709;53.480;9.688;2024-03-22T14:33:46;7.87;;;3.60;;
2406;SDS011;37709;53.480;9.688;2024-03-22T14:36:15;7.00;;;3.30;;
2406;SDS011;37709;53.480;9.688;2024-03-22T14:38:42;10.73;;;2.97;;
2406;SDS011;37709;53.480;9.688;2024-03-22T14:41:08;14.87;;;3.87;;
2406;SDS011;37709;53.480;9.688;2024-03-22T14:43:34;10.73;;;3.70;;
2406;SDS011;37709;53.480;9.688;2024-03-22T14:46:02;9.90;;;3.63;;
2406;SDS011;37709;53.480;9.688;2024-03-22T14:48:29;13.37;;;3.47;;
2406;SDS011;37709;53.480;9.688;2024-03-22T14:50:55;8.37;;;3.00;;